Bookmark and Share
Track history (hours):
 

Saigon Express

Last reported at 2014-Mar-27 05:29 UTC. Time now 2014-Apr-19 02:01 UTC.
Position N 30°19' E 032°23'.
Warning: this ship's position is 22 days out of date.

Length 260 m; draft 11.9 m.

Type: Ship (hazmat cat B). MMSI: 477106800.

NotesDate/timePositionNaut miles runAvg speedWind from/ knotsBaromVisibWave heightAir tempDewpointWater temp
2014-Mar-27 05:29N 30°19' E 032°23'1011.0
2014-Mar-27 04:34N 30°29' E 032°21'  
2014-Mar-22 11:15N 36°14' E 015°04'1116.0
2014-Mar-22 10:33N 36°17' E 014°51'1616.0
2014-Mar-22 09:33N 36°22' E 014°32'1817.6
2014-Mar-22 08:33N 36°27' E 014°11'1515.2
2014-Mar-22 07:33N 36°31' E 013°53'1515.3
2014-Mar-22 06:33N 36°36' E 013°35'1515.3
2014-Mar-22 05:33N 36°41' E 013°17'1515.3
2014-Mar-22 04:33N 36°44' E 012°58'1715.2
2014-Mar-22 03:27N 36°50' E 012°38'1415.3
2014-Mar-22 02:33N 36°54' E 012°22'1515.4
2014-Mar-22 01:33N 36°59' E 012°04'1515.6
2014-Mar-22 00:33N 37°06' E 011°47'1515.1
2014-Mar-21 23:33N 37°13' E 011°30'1515.1
2014-Mar-21 22:33N 37°21' E 011°14'1515.0
2014-Mar-21 21:33N 37°28' E 010°57'1615.5
2014-Mar-21 20:33N 37°29' E 010°37'1515.2
2014-Mar-21 19:34N 37°32' E 010°19'1615.9
2014-Mar-21 18:33N 37°32' E 009°58'44815.2
2014-Mar-20 13:10N 36°51' E 000°39'28515.3
2014-Mar-19 18:34N 36°00' W 005°09'1717.0
2014-Mar-19 17:33N 35°57' W 005°30'1615.9
2014-Mar-19 16:32N 35°54' W 005°50'4016.1
2014-Mar-19 14:04N 35°54' W 006°39'815.6
2014-Mar-19 13:33N 35°54' W 006°49'1615.5
2014-Mar-19 12:33N 35°54' W 007°08'1615.6
2014-Mar-19 11:33N 35°54' W 007°27'1615.6
2014-Mar-19 10:33N 35°54' W 007°46'1715.7
2014-Mar-19 09:30N 35°54' W 008°07'1617.3
2014-Mar-19 08:34N 35°54' W 008°27'1817.6
2014-Mar-19 07:33N 35°54' W 008°49'14016.9
2014-Mar-18 23:20N 35°47' W 011°41'1516.6
2014-Mar-18 22:27N 35°46' W 011°58'57015.4
2014-Mar-17 09:24N 35°16' W 023°38'  

Dump ship's entire track history

sailing weather and tide predictions

Saigon Express — VRBT7 — position and weather